createdAt,value
2023-01-29T00:02:20.803Z,102142.91
2023-01-29T00:04:52.822Z,102129.34
2023-01-29T00:07:24.322Z,102128.28
2023-01-29T00:09:56.172Z,102122.88
2023-01-29T00:12:27.684Z,102121.53
2023-01-29T00:14:59.565Z,102120.56
2023-01-29T00:17:31.330Z,102117.91
2023-01-29T00:20:02.928Z,102122.44
2023-01-29T00:22:34.483Z,102124.06
2023-01-29T00:25:06.462Z,102119.47
2023-01-29T00:27:37.935Z,102121.47
2023-01-29T00:30:12.351Z,102117.69
2023-01-29T00:32:43.835Z,102122.59
2023-01-29T00:35:15.705Z,102121.97
2023-01-29T00:37:47.186Z,102109.84
2023-01-29T00:40:19.022Z,102099.78
2023-01-29T00:43:09.478Z,102091.88
2023-01-29T00:45:41.491Z,102089.03
2023-01-29T00:48:12.980Z,102084.72
2023-01-29T00:50:44.725Z,102084.63
2023-01-29T00:53:16.207Z,102081.56
2023-01-29T00:55:48.081Z,102086.78
2023-01-29T00:58:22.540Z,102083.56
2023-01-29T01:00:54.399Z,102076.66
2023-01-29T01:03:25.900Z,102087.63
2023-01-29T01:05:57.631Z,102082.84
2023-01-29T01:08:48.005Z,102083.84
2023-01-29T01:11:19.718Z,102082.63
2023-01-29T01:13:51.349Z,102088.47
2023-01-29T01:16:23.294Z,102092.66
2023-01-29T01:18:54.983Z,102087.84
2023-01-29T01:21:26.497Z,102087.63
2023-01-29T01:23:58.321Z,102084.28
2023-01-29T01:26:29.880Z,102083.56
2023-01-29T01:29:01.368Z,102079.66
2023-01-29T01:31:32.903Z,102092.16
2023-01-29T01:34:04.745Z,102090.66
2023-01-29T01:36:36.225Z,102084.06
2023-01-29T01:39:08.076Z,102076.22
2023-01-29T01:41:39.587Z,102075.28
2023-01-29T01:44:11.399Z,102085.44
2023-01-29T01:46:42.896Z,102076.94
2023-01-29T01:49:16.292Z,102091.19
2023-01-29T01:51:47.770Z,102092.44
2023-01-29T01:54:19.646Z,102089.63
2023-01-29T01:56:52.485Z,102085.75
2023-01-29T01:59:24.333Z,102088.44
2023-01-29T02:01:55.909Z,102085.09
2023-01-29T02:04:46.622Z,102077.34
2023-01-29T02:07:36.578Z,102070.97
2023-01-29T02:10:08.372Z,102068.38
2023-01-29T02:12:39.849Z,102068.25
2023-01-29T02:15:11.692Z,102062.72
2023-01-29T02:17:48.134Z,102056.19
2023-01-29T02:20:19.765Z,102052.63
2023-01-29T02:22:55.015Z,102059.91
2023-01-29T02:25:26.898Z,102058.84
2023-01-29T02:27:58.371Z,102057.19
2023-01-29T02:30:30.697Z,102056.97
2023-01-29T02:33:02.183Z,102049.44
2023-01-29T02:35:34.124Z,102056.81
2023-01-29T02:38:05.604Z,102051.28
2023-01-29T02:40:37.219Z,102060.75
2023-01-29T02:43:08.785Z,102060.16
2023-01-29T02:45:40.701Z,102059.81
2023-01-29T02:48:12.197Z,102057.56
2023-01-29T02:50:44.909Z,102057.78
2023-01-29T02:53:16.403Z,102053.63
2023-01-29T02:55:48.198Z,102052.66
2023-01-29T02:58:19.676Z,102048.00
2023-01-29T03:00:51.720Z,102036.69
2023-01-29T03:03:23.236Z,102032.91
2023-01-29T03:05:55.167Z,102032.75
2023-01-29T03:08:36.613Z,102034.69
2023-01-29T03:11:08.451Z,102031.75
2023-01-29T03:13:40.309Z,101919.28
2023-01-29T03:16:12.111Z,102034.19
2023-01-29T03:18:46.127Z,102027.56
2023-01-29T03:21:36.515Z,102013.16
2023-01-29T03:24:27.143Z,102017.09
2023-01-29T03:27:17.908Z,102020.22
2023-01-29T03:30:08.516Z,102023.63
2023-01-29T03:32:40.207Z,102024.31
2023-01-29T03:35:12.072Z,102015.06
2023-01-29T03:37:43.541Z,102021.13
2023-01-29T03:40:15.829Z,101870.47
2023-01-29T03:42:47.524Z,102004.38
2023-01-29T03:45:19.511Z,102005.69
2023-01-29T03:47:51.002Z,102005.66
2023-01-29T03:50:22.761Z,102001.03
2023-01-29T03:52:54.253Z,101991.38
2023-01-29T03:55:26.088Z,101990.66
2023-01-29T03:57:57.571Z,101981.41
2023-01-29T04:00:29.593Z,101981.06
2023-01-29T04:03:01.102Z,101980.44
2023-01-29T04:05:32.761Z,101963.88
2023-01-29T04:08:04.300Z,101959.97
2023-01-29T04:10:36.423Z,101955.44
2023-01-29T04:13:07.929Z,101945.91
2023-01-29T04:15:39.769Z,101942.69
2023-01-29T04:18:11.282Z,101939.72
2023-01-29T04:20:46.431Z,101929.03
2023-01-29T04:23:17.912Z,101927.84
2023-01-29T04:25:49.650Z,101922.13
2023-01-29T04:28:21.176Z,101922.34
2023-01-29T04:30:53.223Z,101914.84
2023-01-29T04:33:25.017Z,101927.59
2023-01-29T04:36:00.010Z,101912.13
2023-01-29T04:38:31.499Z,101911.41
2023-01-29T04:41:03.318Z,101899.50
2023-01-29T04:43:34.816Z,101892.25
2023-01-29T04:46:06.601Z,101903.06
2023-01-29T04:48:38.085Z,101909.16
2023-01-29T04:51:10.162Z,101908.81
2023-01-29T04:53:41.644Z,101908.44
2023-01-29T04:56:13.496Z,101912.38
2023-01-29T04:58:45.012Z,101907.50
2023-01-29T05:01:16.791Z,101911.56
2023-01-29T05:03:48.276Z,101902.88
2023-01-29T05:06:20.201Z,101911.22
2023-01-29T05:08:51.695Z,101908.13
2023-01-29T05:11:23.731Z,101910.97
2023-01-29T05:13:55.268Z,101912.53
2023-01-29T05:16:27.030Z,101916.69
2023-01-29T05:18:58.549Z,101909.09
2023-01-29T05:21:30.347Z,101924.78
2023-01-29T05:24:01.841Z,101921.59
2023-01-29T05:26:52.341Z,101911.22
2023-01-29T05:29:23.853Z,101918.00
2023-01-29T05:31:55.653Z,101918.72
2023-01-29T05:34:27.150Z,101919.75
2023-01-29T05:36:58.996Z,101908.91
2023-01-29T05:39:30.461Z,101918.22
2023-01-29T05:42:02.363Z,101915.16
2023-01-29T05:44:33.856Z,101919.19
2023-01-29T05:47:05.344Z,101921.22
2023-01-29T05:49:38.739Z,101926.19
2023-01-29T05:52:10.693Z,101933.91
2023-01-29T05:54:42.275Z,101933.31
2023-01-29T05:57:14.079Z,101946.53
2023-01-29T05:59:45.608Z,101936.53
2023-01-29T06:02:17.520Z,101936.41
2023-01-29T06:04:48.999Z,101935.47
2023-01-29T06:07:20.737Z,101936.81
2023-01-29T06:09:52.219Z,101938.56
2023-01-29T06:12:23.989Z,101861.81
2023-01-29T06:14:55.509Z,101952.28
2023-01-29T06:17:27.260Z,101960.28
2023-01-29T06:19:58.752Z,101957.38
2023-01-29T06:22:30.696Z,101956.69
2023-01-29T06:25:02.291Z,101961.09
2023-01-29T06:27:33.884Z,101949.63
2023-01-29T06:30:05.389Z,101945.38
2023-01-29T06:32:37.244Z,101941.47
2023-01-29T06:35:10.121Z,101934.91
2023-01-29T06:37:42.076Z,101933.38
2023-01-29T06:40:13.603Z,101935.16
2023-01-29T06:42:46.235Z,101941.34
2023-01-29T06:45:17.763Z,101942.88
2023-01-29T06:47:49.438Z,101938.84
2023-01-29T06:50:21.410Z,101947.41
2023-01-29T06:52:52.901Z,101951.72
2023-01-29T06:55:24.386Z,101948.72
2023-01-29T06:57:55.868Z,101951.94
2023-01-29T07:00:28.681Z,101958.25
2023-01-29T07:03:01.558Z,101946.94
2023-01-29T07:05:33.378Z,101945.88
2023-01-29T07:08:04.854Z,101944.09
2023-01-29T07:10:36.680Z,101944.59
2023-01-29T07:13:08.172Z,101947.22
2023-01-29T07:15:39.710Z,101939.59
2023-01-29T07:18:14.025Z,101943.75
2023-01-29T07:20:45.853Z,101948.63
2023-01-29T07:23:17.989Z,101933.63
2023-01-29T07:25:49.963Z,101929.69
2023-01-29T07:28:21.543Z,101927.69
2023-01-29T07:30:53.288Z,101939.59
2023-01-29T07:33:24.979Z,101944.81
2023-01-29T07:35:56.733Z,101948.88
2023-01-29T07:38:28.195Z,101944.81
2023-01-29T07:41:01.330Z,101941.00
2023-01-29T07:43:33.783Z,101943.63
2023-01-29T07:46:05.650Z,101944.00
2023-01-29T07:48:37.142Z,101931.25
2023-01-29T07:51:08.938Z,101925.53
2023-01-29T07:53:40.452Z,101929.81
2023-01-29T07:56:12.261Z,101917.66
2023-01-29T07:58:43.811Z,101890.88
2023-01-29T08:01:15.801Z,101899.81
2023-01-29T08:03:48.493Z,101899.31
2023-01-29T08:06:20.940Z,101899.31
2023-01-29T08:08:53.580Z,101911.56
2023-01-29T08:11:25.057Z,101908.59
2023-01-29T08:13:58.139Z,101900.50
2023-01-29T08:16:30.043Z,101885.94
2023-01-29T08:19:01.535Z,101891.66
2023-01-29T08:21:33.580Z,101898.94
2023-01-29T08:24:05.109Z,101891.78
2023-01-29T08:26:36.612Z,101896.91
2023-01-29T08:29:08.107Z,101890.94
2023-01-29T08:31:39.750Z,101893.44
2023-01-29T08:34:11.233Z,101886.88
2023-01-29T08:36:43.052Z,101895.34
2023-01-29T08:39:14.629Z,101887.22
2023-01-29T08:41:46.425Z,101896.31
2023-01-29T08:44:17.958Z,101893.31
2023-01-29T08:46:49.679Z,101893.44
2023-01-29T08:49:21.249Z,101899.28
2023-01-29T08:51:54.137Z,101882.84
2023-01-29T08:54:25.655Z,101882.59
2023-01-29T08:56:57.742Z,101895.41
2023-01-29T08:59:29.364Z,101897.28
2023-01-29T09:02:01.190Z,101898.75
2023-01-29T09:04:32.709Z,101896.81
2023-01-29T09:07:04.232Z,101887.78
2023-01-29T09:09:35.716Z,101885.63
2023-01-29T09:12:07.578Z,101879.28
2023-01-29T09:14:39.071Z,101883.72
2023-01-29T09:17:13.797Z,101869.84
2023-01-29T09:19:45.275Z,101882.53
2023-01-29T09:22:16.772Z,101875.09
2023-01-29T09:24:48.390Z,101876.28
2023-01-29T09:27:20.261Z,101872.56
2023-01-29T09:29:51.741Z,101879.34
2023-01-29T09:32:51.701Z,101883.66
2023-01-29T09:35:15.452Z,101880.91
2023-01-29T09:37:47.582Z,101888.28
2023-01-29T09:40:19.111Z,101880.41
2023-01-29T09:42:51.081Z,101878.53
2023-01-29T09:45:24.545Z,101865.84
2023-01-29T09:47:56.445Z,101868.41
2023-01-29T09:50:28.042Z,101856.75
2023-01-29T09:52:59.550Z,101853.47
2023-01-29T09:55:31.063Z,101846.69
2023-01-29T09:58:03.402Z,101840.56
2023-01-29T10:00:34.908Z,101846.69
2023-01-29T10:05:39.123Z,101823.09
2023-01-29T10:08:10.918Z,101823.72
2023-01-29T10:10:42.423Z,101815.03
2023-01-29T10:13:14.274Z,101823.38
2023-01-29T10:15:45.810Z,101820.38
2023-01-29T10:18:17.721Z,101810.66
2023-01-29T10:20:50.061Z,101801.09
2023-01-29T10:23:21.941Z,101795.97
2023-01-29T10:25:53.485Z,101790.41
2023-01-29T10:28:25.412Z,101801.69
2023-01-29T10:30:57.034Z,101804.91
2023-01-29T10:33:29.623Z,101817.38
2023-01-29T10:36:02.651Z,101812.19
2023-01-29T10:38:34.215Z,101818.16
2023-01-29T10:41:05.847Z,101809.97
2023-01-29T10:43:38.895Z,101804.69
2023-01-29T10:46:10.409Z,101799.44
2023-01-29T10:48:42.273Z,101796.22
2023-01-29T10:51:14.604Z,101787.44
2023-01-29T10:53:46.601Z,101795.91
2023-01-29T10:56:23.226Z,101780.34
2023-01-29T10:58:55.070Z,101777.16
2023-01-29T11:01:27.038Z,101778.69
2023-01-29T11:03:58.813Z,101781.69
2023-01-29T11:06:30.284Z,101761.69
2023-01-29T11:09:02.158Z,101755.59
2023-01-29T11:11:33.669Z,101754.97
2023-01-29T11:14:07.468Z,101761.81
2023-01-29T11:16:39.031Z,101749.22
2023-01-29T11:19:10.542Z,101743.06
2023-01-29T11:21:42.047Z,101736.56
2023-01-29T11:24:15.714Z,101530.69
2023-01-29T11:26:47.302Z,101744.56
2023-01-29T11:29:19.055Z,101736.72
2023-01-29T11:31:50.617Z,101742.19
2023-01-29T11:34:22.294Z,101730.50
2023-01-29T11:36:53.790Z,101723.69
2023-01-29T11:39:25.591Z,101725.59
2023-01-29T11:41:57.737Z,101723.41
2023-01-29T11:44:29.891Z,101710.16
2023-01-29T11:47:01.381Z,101715.72
2023-01-29T11:49:33.089Z,101707.91
2023-01-29T11:52:04.714Z,101705.16
2023-01-29T11:54:36.602Z,101701.47
2023-01-29T11:57:08.255Z,101704.19
2023-01-29T11:59:39.782Z,101696.00
2023-01-29T12:02:11.265Z,101686.78
2023-01-29T12:04:43.103Z,101684.97
2023-01-29T12:07:14.875Z,101692.66
2023-01-29T12:09:46.391Z,101688.72
2023-01-29T12:12:17.940Z,101684.38
2023-01-29T12:14:49.663Z,101678.63
2023-01-29T12:17:21.168Z,101669.53
2023-01-29T12:19:52.814Z,101669.25
2023-01-29T12:22:24.332Z,101659.50
2023-01-29T12:24:55.863Z,101659.22
2023-01-29T12:27:27.335Z,101655.53
2023-01-29T12:29:59.048Z,101658.41
2023-01-29T12:32:31.617Z,101657.94
2023-01-29T12:35:03.107Z,101647.00
2023-01-29T12:37:34.588Z,101652.59
2023-01-29T12:40:06.857Z,101650.31
2023-01-29T12:42:38.463Z,101641.41
2023-01-29T12:45:10.945Z,101631.41
2023-01-29T12:47:42.826Z,101621.69
2023-01-29T12:50:14.735Z,101610.19
2023-01-29T12:52:46.648Z,101591.34
2023-01-29T12:55:18.139Z,101608.59
2023-01-29T12:57:49.666Z,101616.28
2023-01-29T13:00:21.299Z,101617.56
2023-01-29T13:02:53.240Z,101621.72
2023-01-29T13:05:24.838Z,101618.38
2023-01-29T13:07:56.704Z,101614.34
2023-01-29T13:10:28.219Z,101622.53
2023-01-29T13:13:00.108Z,101625.16
2023-01-29T13:15:31.698Z,101608.59
2023-01-29T13:18:03.290Z,101611.75
2023-01-29T13:20:34.783Z,101606.94
2023-01-29T13:23:06.301Z,101599.09
2023-01-29T13:25:37.787Z,101595.34
2023-01-29T13:28:09.628Z,101601.53
2023-01-29T13:30:41.104Z,101604.53
2023-01-29T13:33:14.157Z,101594.28
2023-01-29T13:35:46.682Z,101587.97
2023-01-29T13:38:18.511Z,101590.66
2023-01-29T13:40:50.475Z,101600.56
2023-01-29T13:43:22.455Z,101595.06
2023-01-29T13:45:53.987Z,101594.59
2023-01-29T13:48:25.896Z,101592.09
2023-01-29T13:50:57.561Z,101595.91
2023-01-29T13:53:29.573Z,101578.50
2023-01-29T13:56:01.046Z,101591.44
2023-01-29T13:58:32.994Z,101586.72
2023-01-29T14:01:04.584Z,101595.28
2023-01-29T14:03:56.424Z,101585.22
2023-01-29T14:06:27.853Z,101586.72
2023-01-29T14:09:01.880Z,101582.34
2023-01-29T14:11:33.564Z,101576.78
2023-01-29T14:14:05.298Z,101574.19
2023-01-29T14:16:36.910Z,101576.72
2023-01-29T14:19:08.919Z,101564.28
2023-01-29T14:21:40.396Z,101573.03
2023-01-29T14:24:12.301Z,101570.78
2023-01-29T14:26:45.322Z,101563.75
2023-01-29T14:29:21.628Z,101560.31
2023-01-29T14:32:00.612Z,101561.38
2023-01-29T14:34:32.435Z,101563.63
2023-01-29T14:37:03.981Z,101552.88
2023-01-29T14:39:35.823Z,101551.53
2023-01-29T14:42:08.461Z,101555.81
2023-01-29T14:44:39.981Z,101550.97
2023-01-29T14:47:11.446Z,101550.97
2023-01-29T14:49:43.041Z,101550.13
2023-01-29T14:52:14.553Z,101546.28
2023-01-29T14:54:46.468Z,101539.94
2023-01-29T14:57:18.049Z,101535.22
2023-01-29T14:59:49.588Z,101533.28
2023-01-29T15:02:21.188Z,101540.50
2023-01-29T15:04:53.111Z,101531.78
2023-01-29T15:07:24.628Z,101529.47
2023-01-29T15:10:07.921Z,101530.59
2023-01-29T15:12:47.747Z,101532.66
2023-01-29T15:15:19.804Z,101531.97
2023-01-29T15:17:51.382Z,101530.88
2023-01-29T15:20:22.861Z,101522.84
2023-01-29T15:22:54.402Z,101519.53
2023-01-29T15:25:26.045Z,101515.78
2023-01-29T15:27:57.635Z,101512.19
2023-01-29T15:30:29.543Z,101540.53
2023-01-29T15:33:02.065Z,101510.16
2023-01-29T15:35:33.629Z,101506.81
2023-01-29T15:38:05.268Z,101499.34
2023-01-29T15:40:37.153Z,101496.19
2023-01-29T15:43:08.679Z,101493.97
2023-01-29T15:45:40.163Z,101499.50
2023-01-29T15:48:11.784Z,101498.25
2023-01-29T15:50:43.606Z,101492.03
2023-01-29T15:53:15.090Z,101490.81
2023-01-29T15:55:46.861Z,101485.25
2023-01-29T15:58:18.334Z,101493.13
2023-01-29T16:00:49.876Z,101477.91
2023-01-29T16:03:21.417Z,101478.75
2023-01-29T16:05:52.987Z,101478.59
2023-01-29T16:08:24.572Z,101475.84
2023-01-29T16:10:56.549Z,101489.25
2023-01-29T16:13:28.710Z,101482.06
2023-01-29T16:16:00.792Z,101486.63
2023-01-29T16:18:34.512Z,101483.91
2023-01-29T16:21:09.108Z,101477.09
2023-01-29T16:23:41.007Z,101475.44
2023-01-29T16:26:12.571Z,101479.47
2023-01-29T16:28:44.775Z,101472.56
2023-01-29T16:31:19.148Z,101467.84
2023-01-29T16:33:50.982Z,101466.63
2023-01-29T16:39:09.175Z,101463.31
2023-01-29T16:41:40.824Z,101467.59
2023-01-29T16:44:13.088Z,101464.69
2023-01-29T16:46:44.971Z,101460.13
2023-01-29T16:49:17.075Z,101458.06
2023-01-29T16:51:48.565Z,101459.44
2023-01-29T16:54:22.521Z,101454.19
2023-01-29T16:56:54.025Z,101459.72
2023-01-29T16:59:27.070Z,101458.31
2023-01-29T17:01:58.565Z,101459.00
2023-01-29T17:04:30.062Z,101462.72
2023-01-29T17:07:01.567Z,101455.00
2023-01-29T17:09:33.427Z,101466.75
2023-01-29T17:12:04.983Z,101447.81
2023-01-29T17:14:39.075Z,101442.97
2023-01-29T17:17:10.573Z,101440.34
2023-01-29T17:19:42.072Z,101420.31
2023-01-29T17:22:15.049Z,101438.41
2023-01-29T17:24:46.855Z,101430.00
2023-01-29T17:27:18.419Z,101429.84
2023-01-29T17:29:51.119Z,101423.47
2023-01-29T17:32:23.557Z,101428.59
2023-01-29T17:34:56.256Z,101417.81
2023-01-29T17:37:28.357Z,101421.38
2023-01-29T17:40:03.026Z,101398.44
2023-01-29T17:42:36.506Z,101395.81
2023-01-29T17:45:08.434Z,101402.72
2023-01-29T17:47:40.068Z,101389.59
2023-01-29T17:50:12.003Z,101390.72
2023-01-29T17:52:43.484Z,101381.56
2023-01-29T17:55:15.688Z,101373.09
2023-01-29T17:57:47.490Z,101371.59
2023-01-29T18:00:19.050Z,101370.53
2023-01-29T18:02:50.693Z,101364.59
2023-01-29T18:05:22.511Z,101365.28
2023-01-29T18:07:54.729Z,101355.44
2023-01-29T18:10:26.282Z,101345.91
2023-01-29T18:12:57.816Z,101355.16
2023-01-29T18:15:29.365Z,101340.47
2023-01-29T18:18:01.510Z,101345.31
2023-01-29T18:20:36.981Z,101336.75
2023-01-29T18:23:08.545Z,101330.88
2023-01-29T18:25:40.461Z,101326.34
2023-01-29T18:28:12.036Z,101319.34
2023-01-29T18:30:44.376Z,101321.69
2023-01-29T18:33:15.991Z,101324.41
2023-01-29T18:35:50.553Z,101321.84
2023-01-29T18:38:22.060Z,101322.63
2023-01-29T18:40:53.963Z,101318.22
2023-01-29T18:43:26.290Z,101309.09
2023-01-29T18:45:59.334Z,101299.66
2023-01-29T18:48:31.112Z,101303.53
2023-01-29T18:51:02.611Z,101309.53
2023-01-29T18:53:34.094Z,101300.22
2023-01-29T18:56:05.979Z,101310.75
2023-01-29T18:58:37.531Z,101298.63
2023-01-29T19:01:10.299Z,101313.56
2023-01-29T19:03:42.063Z,101301.34
2023-01-29T19:06:13.887Z,101298.72
2023-01-29T19:08:45.540Z,101295.41
2023-01-29T19:11:17.199Z,101290.59
2023-01-29T19:13:50.022Z,101288.72
2023-01-29T19:16:21.907Z,101287.34
2023-01-29T19:18:53.500Z,101291.06
2023-01-29T19:21:25.325Z,101283.44
2023-01-29T19:23:56.893Z,101272.41
2023-01-29T19:26:29.047Z,101269.63
2023-01-29T19:29:00.613Z,101261.47
2023-01-29T19:31:32.446Z,101245.31
2023-01-29T19:34:03.949Z,101244.06
2023-01-29T19:36:35.906Z,101246.09
2023-01-29T19:39:07.424Z,101237.25
2023-01-29T19:41:39.064Z,101243.91
2023-01-29T19:44:10.608Z,101243.91
2023-01-29T19:46:42.429Z,101242.19
2023-01-29T19:49:13.964Z,101228.38
2023-01-29T19:51:45.724Z,101218.03
2023-01-29T19:54:17.232Z,101222.16
2023-01-29T19:56:48.904Z,101214.88
2023-01-29T19:59:20.445Z,101213.75
2023-01-29T20:01:52.335Z,101218.25
2023-01-29T20:04:23.919Z,101216.47
2023-01-29T20:06:56.275Z,101207.69
2023-01-29T20:09:29.349Z,101199.72
2023-01-29T20:12:01.159Z,101195.28
2023-01-29T20:14:32.637Z,101195.16
2023-01-29T20:17:05.952Z,101200.41
2023-01-29T20:19:39.113Z,101196.19
2023-01-29T20:22:11.142Z,101180.28
2023-01-29T20:24:43.220Z,101175.03
2023-01-29T20:27:14.809Z,101174.78
2023-01-29T20:29:46.661Z,101161.28
2023-01-29T20:32:18.165Z,101158.06
2023-01-29T20:34:52.484Z,101156.16
2023-01-29T20:37:24.068Z,101155.22
2023-01-29T20:39:55.906Z,101150.00
2023-01-29T20:42:27.396Z,101146.69
2023-01-29T20:44:59.108Z,101144.75
2023-01-29T20:47:30.642Z,101134.63
2023-01-29T20:50:08.435Z,101132.00
2023-01-29T20:52:40.126Z,101121.78
2023-01-29T20:55:15.894Z,101122.72
2023-01-29T20:58:05.501Z,101115.72
2023-01-29T21:00:39.444Z,101109.03
2023-01-29T21:03:11.130Z,101106.31
2023-01-29T21:05:43.064Z,101103.56
2023-01-29T21:08:14.651Z,101097.78
2023-01-29T21:10:46.234Z,101090.88
2023-01-29T21:13:17.807Z,101097.25
2023-01-29T21:15:52.784Z,101077.06
2023-01-29T21:18:26.233Z,101072.78
2023-01-29T21:20:57.907Z,101067.16
2023-01-29T21:23:29.435Z,101062.22
2023-01-29T21:26:01.092Z,101053.97
2023-01-29T21:28:32.620Z,101051.50
2023-01-29T21:31:04.710Z,101057.56
2023-01-29T21:33:36.273Z,101053.84
2023-01-29T21:36:08.664Z,101049.16
2023-01-29T21:38:40.153Z,101038.81
2023-01-29T21:41:11.655Z,101033.81
2023-01-29T21:43:43.163Z,101045.72
2023-01-29T21:46:16.562Z,101033.56
2023-01-29T21:48:48.062Z,101018.88
2023-01-29T21:51:20.072Z,101016.44
2023-01-29T21:53:51.565Z,101004.09
2023-01-29T21:56:23.416Z,101000.13
2023-01-29T21:58:55.181Z,101005.88
2023-01-29T22:01:37.585Z,100990.88
2023-01-29T22:04:11.498Z,100987.97
2023-01-29T22:06:43.660Z,100993.22
2023-01-29T22:09:15.170Z,100996.00
2023-01-29T22:11:47.069Z,100985.72
2023-01-29T22:14:18.563Z,100982.13
2023-01-29T22:16:50.190Z,100985.41
2023-01-29T22:19:21.683Z,100983.25
2023-01-29T22:21:53.499Z,100959.94
2023-01-29T22:24:24.977Z,100967.72
2023-01-29T22:26:56.690Z,100953.63
2023-01-29T22:29:28.214Z,100956.38
2023-01-29T22:32:00.127Z,100962.97
2023-01-29T22:34:31.718Z,100944.69
2023-01-29T22:37:03.382Z,100936.53
2023-01-29T22:39:34.865Z,100927.16
2023-01-29T22:42:06.767Z,100914.47
2023-01-29T22:44:38.332Z,100909.50
2023-01-29T22:47:10.226Z,100920.72
2023-01-29T22:49:41.762Z,100919.13
2023-01-29T22:52:14.203Z,100911.66
2023-01-29T22:54:45.698Z,100898.34
2023-01-29T22:57:17.588Z,100893.09
2023-01-29T22:59:49.078Z,100892.06
2023-01-29T23:02:20.840Z,100878.25
2023-01-29T23:04:52.454Z,100868.88
2023-01-29T23:07:24.022Z,100872.53
2023-01-29T23:09:55.533Z,100852.31
2023-01-29T23:12:27.391Z,100847.50
2023-01-29T23:14:58.930Z,100849.38
2023-01-29T23:17:30.453Z,100843.97
2023-01-29T23:20:01.955Z,100851.56
2023-01-29T23:22:33.814Z,100836.47
2023-01-29T23:25:05.298Z,100834.31
2023-01-29T23:27:37.091Z,100812.78
2023-01-29T23:30:08.570Z,100814.75
2023-01-29T23:32:40.619Z,100817.44
2023-01-29T23:35:12.141Z,100814.50
2023-01-29T23:37:44.071Z,100810.09
2023-01-29T23:40:15.880Z,100807.13
2023-01-29T23:42:48.047Z,100801.69
2023-01-29T23:45:19.617Z,100795.75
2023-01-29T23:47:51.484Z,100797.41
2023-01-29T23:50:22.992Z,100770.13
2023-01-29T23:52:54.944Z,100782.94
2023-01-29T23:55:26.476Z,100775.38
2023-01-29T23:57:58.312Z,100779.38
